createdAt,value
2017-08-17T00:00:25.275Z,100388.14
2017-08-17T00:03:27.375Z,100391.78
2017-08-17T00:06:28.771Z,100388.53
2017-08-17T00:09:30.173Z,100380.67
2017-08-17T00:12:31.595Z,100373.52
2017-08-17T00:15:33.785Z,100360.16
2017-08-17T00:18:35.211Z,100363.61
2017-08-17T00:21:37.311Z,100354.53
2017-08-17T00:24:38.704Z,100354.56
2017-08-17T00:27:40.076Z,100348.99
2017-08-17T00:30:41.476Z,100344.94
2017-08-17T00:33:42.862Z,100340.97
2017-08-17T00:36:44.356Z,100344.79
2017-08-17T00:39:45.778Z,100344.88
2017-08-17T00:42:47.320Z,100338.69
2017-08-17T00:45:48.747Z,100341.81
2017-08-17T00:48:50.147Z,100331.38
2017-08-17T00:51:52.289Z,100335.81
2017-08-17T00:54:53.706Z,100334.22
2017-08-17T00:57:55.166Z,100343.17
2017-08-17T01:00:56.642Z,100338.54
2017-08-17T01:03:58.287Z,100331.65
2017-08-17T01:06:59.716Z,100345.05
2017-08-17T01:10:01.095Z,100347.70
2017-08-17T01:13:02.588Z,100332.34
2017-08-17T01:16:04.821Z,100334.70
2017-08-17T01:19:06.335Z,100339.05
2017-08-17T01:22:07.801Z,100334.77
2017-08-17T01:25:09.354Z,100330.42
2017-08-17T01:28:10.870Z,100314.80
2017-08-17T01:31:13.171Z,100322.88
2017-08-17T01:34:14.561Z,100323.13
2017-08-17T01:37:16.021Z,100317.08
2017-08-17T01:40:17.516Z,100320.38
2017-08-17T01:43:19.810Z,100315.55
2017-08-17T01:46:21.266Z,100317.92
2017-08-17T01:49:22.742Z,100322.11
2017-08-17T01:52:24.204Z,100311.11
2017-08-17T01:55:25.640Z,100310.25
2017-08-17T01:58:27.299Z,100312.32
2017-08-17T02:01:28.844Z,100304.50
2017-08-17T02:04:30.311Z,100307.69
2017-08-17T02:07:31.719Z,100302.63
2017-08-17T02:10:34.082Z,100298.51
2017-08-17T02:13:36.289Z,100295.42
2017-08-17T02:16:37.695Z,100294.72
2017-08-17T02:19:39.799Z,100301.98
2017-08-17T02:22:41.190Z,100302.13
2017-08-17T02:25:42.590Z,100306.48
2017-08-17T02:28:43.994Z,100308.75
2017-08-17T02:31:45.542Z,100318.42
2017-08-17T02:34:46.983Z,100306.77
2017-08-17T02:40:56.939Z,100312.70
2017-08-17T02:43:58.382Z,100309.95
2017-08-17T02:46:59.752Z,100312.81
2017-08-17T02:50:01.163Z,100305.44
2017-08-17T02:53:02.532Z,100306.64
2017-08-17T02:56:03.987Z,100302.13
2017-08-17T02:59:05.365Z,100305.73
2017-08-17T03:02:06.786Z,100301.59
2017-08-17T03:05:08.199Z,100304.77
2017-08-17T03:08:09.585Z,100296.75
2017-08-17T03:11:10.972Z,100302.06
2017-08-17T03:14:12.366Z,100300.61
2017-08-17T03:17:14.510Z,100294.47
2017-08-17T03:20:15.879Z,100296.45
2017-08-17T03:23:18.041Z,100292.38
2017-08-17T03:26:19.457Z,100294.97
2017-08-17T03:32:24.544Z,100296.20
2017-08-17T03:35:25.990Z,100303.77
2017-08-17T03:38:27.373Z,100296.35
2017-08-17T03:41:28.948Z,100294.53
2017-08-17T03:44:30.370Z,100289.87
2017-08-17T03:47:32.545Z,100298.33
2017-08-17T03:50:34.788Z,100298.13
2017-08-17T03:53:36.164Z,100295.30
2017-08-17T03:56:38.278Z,100290.73
2017-08-17T03:59:39.639Z,100294.55
2017-08-17T04:02:41.054Z,100288.03
2017-08-17T04:05:42.435Z,100293.04
2017-08-17T04:08:43.835Z,100284.38
2017-08-17T04:11:45.262Z,100285.89
2017-08-17T04:14:46.756Z,100289.03
2017-08-17T04:17:48.266Z,100283.10
2017-08-17T04:20:49.603Z,100290.52
2017-08-17T04:23:51.024Z,100285.59
2017-08-17T04:26:52.410Z,100290.80
2017-08-17T04:29:53.874Z,100291.12
2017-08-17T04:32:55.251Z,100283.30
2017-08-17T04:35:57.481Z,100283.81
2017-08-17T04:38:58.874Z,100280.87
2017-08-17T04:42:00.987Z,100269.16
2017-08-17T04:45:02.391Z,100271.70
2017-08-17T04:48:04.516Z,100263.98
2017-08-17T04:51:06.283Z,100261.34
2017-08-17T04:57:40.452Z,100248.53
2017-08-17T05:00:42.622Z,100256.05
2017-08-17T05:03:44.031Z,100239.20
2017-08-17T05:06:45.407Z,100246.17
2017-08-17T05:09:46.860Z,100243.66
2017-08-17T05:12:48.356Z,100244.23
2017-08-17T05:15:49.670Z,100238.07
2017-08-17T05:18:51.062Z,100230.20
2017-08-17T05:21:52.409Z,100234.39
2017-08-17T05:24:53.758Z,100234.55
2017-08-17T05:27:55.119Z,100222.95
2017-08-17T05:30:56.436Z,100230.43
2017-08-17T05:33:58.526Z,100219.95
2017-08-17T05:36:59.838Z,100230.08
2017-08-17T05:40:01.183Z,100237.86
2017-08-17T05:43:03.255Z,100228.31
2017-08-17T05:46:04.611Z,100220.09
2017-08-17T05:49:06.710Z,100223.43
2017-08-17T05:52:08.600Z,100230.67
2017-08-17T05:55:09.971Z,100221.81
2017-08-17T05:58:11.342Z,100214.27
2017-08-17T06:01:12.768Z,100222.00
2017-08-17T06:04:14.138Z,100211.85
2017-08-17T06:07:15.445Z,100210.58
2017-08-17T06:10:16.868Z,100210.39
2017-08-17T06:13:18.200Z,100209.23
2017-08-17T06:16:20.388Z,100203.27
2017-08-17T06:19:21.759Z,100196.77
2017-08-17T06:22:23.099Z,100198.88
2017-08-17T06:25:24.445Z,100198.48
2017-08-17T06:28:27.511Z,100209.88
2017-08-17T06:31:28.963Z,100210.50
2017-08-17T06:34:31.092Z,100217.56
2017-08-17T06:37:32.430Z,100211.96
2017-08-17T06:40:33.785Z,100214.25
2017-08-17T06:43:35.139Z,100213.70
2017-08-17T06:46:36.482Z,100211.27
2017-08-17T06:49:38.094Z,100210.55
2017-08-17T06:52:40.232Z,100213.87
2017-08-17T06:55:41.610Z,100206.34
2017-08-17T06:58:43.762Z,100207.25
2017-08-17T07:01:45.193Z,100204.58
2017-08-17T07:04:46.546Z,100213.44
2017-08-17T07:07:47.882Z,100213.94
2017-08-17T07:10:49.276Z,100206.09
2017-08-17T07:13:50.594Z,100203.53
2017-08-17T07:16:51.988Z,100205.77
2017-08-17T07:19:54.069Z,100211.94
2017-08-17T07:22:55.438Z,100206.91
2017-08-17T07:25:56.761Z,100207.12
2017-08-17T07:28:58.813Z,100212.23
2017-08-17T07:32:01.001Z,100208.31
2017-08-17T07:35:02.357Z,100202.62
2017-08-17T07:38:03.665Z,100197.80
2017-08-17T07:41:05.035Z,100196.73
2017-08-17T07:44:07.111Z,100201.02
2017-08-17T07:47:09.277Z,100202.09
2017-08-17T07:50:10.638Z,100193.09
2017-08-17T07:53:11.976Z,100195.98
2017-08-17T07:56:14.092Z,100200.93
2017-08-17T07:59:15.538Z,100197.67
2017-08-17T08:02:16.887Z,100195.30
2017-08-17T08:05:18.607Z,100198.74
2017-08-17T08:08:20.717Z,100188.71
2017-08-17T08:11:22.074Z,100190.00
2017-08-17T08:14:23.404Z,100189.32
2017-08-17T08:17:24.800Z,100180.22
2017-08-17T08:20:26.183Z,100171.33
2017-08-17T08:23:28.233Z,100182.80
2017-08-17T08:26:30.326Z,100174.22
2017-08-17T08:29:31.632Z,100178.81
2017-08-17T08:32:33.025Z,100174.31
2017-08-17T08:35:34.354Z,100184.67
2017-08-17T08:38:36.425Z,100181.64
2017-08-17T08:41:38.545Z,100187.38
2017-08-17T08:44:39.978Z,100174.19
2017-08-17T08:47:41.392Z,100172.88
2017-08-17T08:50:43.666Z,100180.13
2017-08-17T08:53:45.041Z,100155.95
2017-08-17T08:56:46.419Z,100169.83
2017-08-17T08:59:47.898Z,100171.61
2017-08-17T09:02:49.287Z,100157.42
2017-08-17T09:05:50.670Z,100158.96
2017-08-17T09:08:52.025Z,100163.83
2017-08-17T09:11:53.409Z,100157.55
2017-08-17T09:14:54.774Z,100156.63
2017-08-17T09:17:56.920Z,100151.84
2017-08-17T09:20:58.393Z,100151.02
2017-08-17T09:24:00.501Z,100163.20
2017-08-17T09:27:02.018Z,100162.72
2017-08-17T09:30:04.098Z,100163.06
2017-08-17T09:33:05.569Z,100164.21
2017-08-17T09:36:06.982Z,100160.47
2017-08-17T09:42:43.436Z,100162.56
2017-08-17T09:45:44.793Z,100149.09
2017-08-17T09:48:46.220Z,100143.05
2017-08-17T09:51:47.631Z,100143.14
2017-08-17T09:54:49.041Z,100134.72
2017-08-17T09:57:50.513Z,100124.20
2017-08-17T10:00:51.956Z,100128.77
2017-08-17T10:03:53.438Z,100122.78
2017-08-17T10:06:54.989Z,100119.66
2017-08-17T10:09:56.391Z,100113.31
2017-08-17T10:12:57.800Z,100106.28
2017-08-17T10:15:59.377Z,100105.77
2017-08-17T10:19:01.556Z,100101.90
2017-08-17T10:22:02.938Z,100094.28
2017-08-17T10:25:04.331Z,100103.38
2017-08-17T10:28:06.477Z,100101.98
2017-08-17T10:31:07.955Z,100104.23
2017-08-17T10:34:09.379Z,100106.53
2017-08-17T10:37:10.837Z,100097.55
2017-08-17T10:40:12.886Z,100097.03
2017-08-17T10:43:14.418Z,100086.03
2017-08-17T10:46:15.770Z,100082.31
2017-08-17T10:49:17.200Z,100083.42
2017-08-17T10:52:19.326Z,100082.13
2017-08-17T10:55:20.729Z,100085.00
